createdAt,value
2022-08-01T00:00:13.298Z,1.04
2022-08-01T00:01:14.690Z,0.87
2022-08-01T00:02:14.279Z,0.65
2022-08-01T00:03:14.765Z,0.41
2022-08-01T00:04:14.147Z,0.76
2022-08-01T00:05:12.812Z,0.98
2022-08-01T00:06:14.567Z,0.98
2022-08-01T00:07:14.544Z,0.86
2022-08-01T00:08:13.572Z,0.86
2022-08-01T00:09:25.953Z,0.91
2022-08-01T00:10:12.561Z,0.79
2022-08-01T00:11:15.934Z,0.79
2022-08-01T00:12:13.700Z,0.78
2022-08-01T00:13:12.661Z,1.13
2022-08-01T00:14:13.863Z,1.13
2022-08-01T00:15:11.183Z,0.65
2022-08-01T00:16:13.672Z,0.65
2022-08-01T00:17:15.067Z,0.82
2022-08-01T00:18:14.735Z,0.8
2022-08-01T00:19:18.821Z,0.99
2022-08-01T00:20:15.638Z,0.83
2022-08-01T00:21:13.840Z,0.76
2022-08-01T00:22:18.682Z,0.76
2022-08-01T00:23:15.509Z,1.12
2022-08-01T00:24:17.749Z,0.93
2022-08-01T00:25:15.466Z,0.93
2022-08-01T00:26:13.177Z,0.82
2022-08-01T00:27:10.141Z,0.82
2022-08-01T00:28:12.489Z,0.64
2022-08-01T00:30:15.288Z,0.86
2022-08-01T00:30:16.882Z,0.86
2022-08-01T00:31:16.229Z,0.69
2022-08-01T00:32:13.210Z,0.69
2022-08-01T00:33:15.391Z,0.85
2022-08-01T00:34:13.741Z,0.71
2022-08-01T00:35:10.785Z,1.11
2022-08-01T00:36:13.624Z,1.11
2022-08-01T00:37:17.617Z,0.64
2022-08-01T00:38:15.195Z,0.64
2022-08-01T00:39:13.368Z,0.64
2022-08-01T00:40:09.905Z,1.06
2022-08-01T00:41:16.090Z,1.06
2022-08-01T00:42:21.157Z,1.18
2022-08-01T00:43:10.758Z,1.18
2022-08-01T00:44:13.411Z,0.98
2022-08-01T00:45:15.057Z,0.65
2022-08-01T00:46:15.434Z,0.65
2022-08-01T00:47:13.195Z,0.65
2022-08-01T00:48:15.762Z,0.64
2022-08-01T00:49:13.746Z,0.59
2022-08-01T00:50:15.290Z,0.69
2022-08-01T00:51:13.025Z,0.69
2022-08-01T00:52:14.311Z,0.74
2022-08-01T00:53:20.927Z,0.59
2022-08-01T00:54:09.278Z,0.59
2022-08-01T00:55:17.364Z,1.13
2022-08-01T00:56:15.270Z,0.73
2022-08-01T00:57:12.861Z,0.67
2022-08-01T00:58:14.577Z,0.67
2022-08-01T00:59:13.411Z,0.9
2022-08-01T01:00:14.306Z,0.9
2022-08-01T01:01:14.837Z,0.9
2022-08-01T01:02:17.741Z,0.8
2022-08-01T01:03:10.816Z,0.8
2022-08-01T01:04:14.988Z,0.76
2022-08-01T01:05:12.938Z,1.08
2022-08-01T01:06:12.208Z,1.08
2022-08-01T01:07:11.854Z,1.08
2022-08-01T01:08:14.551Z,1.27
2022-08-01T01:09:13.938Z,0.89
2022-08-01T01:10:14.201Z,1.04
2022-08-01T01:11:13.918Z,1.08
2022-08-01T01:12:13.597Z,1.08
2022-08-01T01:13:11.328Z,0.58
2022-08-01T01:14:12.070Z,0.58
2022-08-01T01:15:13.277Z,0.79
2022-08-01T01:16:16.437Z,0.85
2022-08-01T01:17:14.114Z,1.09
2022-08-01T01:18:12.092Z,1.07
2022-08-01T01:19:18.365Z,0.59
2022-08-01T01:20:15.950Z,1.02
2022-08-01T01:21:13.322Z,1.02
2022-08-01T01:22:12.234Z,0.99
2022-08-01T01:23:11.716Z,0.99
2022-08-01T01:24:13.233Z,0.9
2022-08-01T01:25:12.769Z,0.85
2022-08-01T01:26:12.694Z,0.69
2022-08-01T01:27:13.849Z,0.69
2022-08-01T01:28:12.280Z,1.37
2022-08-01T01:29:13.549Z,0.97
2022-08-01T01:30:12.477Z,0.7
2022-08-01T01:31:13.157Z,0.7
2022-08-01T01:32:12.112Z,0.88
2022-08-01T01:33:14.895Z,0.66
2022-08-01T01:34:11.968Z,0.66
2022-08-01T01:35:12.571Z,1.02
2022-08-01T01:36:14.070Z,0.8
2022-08-01T01:37:14.050Z,0.69
2022-08-01T01:38:13.264Z,0.99
2022-08-01T01:39:18.271Z,0.99
2022-08-01T01:40:05.508Z,0.78
2022-08-01T01:41:07.121Z,0.72
2022-08-01T01:42:15.258Z,0.74
2022-08-01T01:43:13.026Z,0.68
2022-08-01T01:44:10.706Z,1
2022-08-01T01:45:14.392Z,0.84
2022-08-01T01:46:14.232Z,0.84
2022-08-01T01:47:10.220Z,0.84
2022-08-01T01:48:12.758Z,1.02
2022-08-01T01:49:17.012Z,1.18
2022-08-01T01:50:14.373Z,1.18
2022-08-01T01:51:14.931Z,1.18
2022-08-01T01:52:15.710Z,0.97
2022-08-01T01:53:17.603Z,0.81
2022-08-01T01:54:15.168Z,1.5
2022-08-01T01:55:14.215Z,1.5
2022-08-01T01:56:12.754Z,0.92
2022-08-01T01:57:06.893Z,0.92
2022-08-01T01:58:12.805Z,1.08
2022-08-01T01:59:12.897Z,1.08
2022-08-01T02:00:11.629Z,0.83
2022-08-01T02:02:06.728Z,0.83
2022-08-01T02:02:14.597Z,1.06
2022-08-01T02:03:14.780Z,1.06
2022-08-01T02:04:18.443Z,0.89
2022-08-01T02:05:13.602Z,0.94
2022-08-01T02:06:12.587Z,0.94
2022-08-01T02:07:14.219Z,0.73
2022-08-01T02:08:14.345Z,0.72
2022-08-01T02:09:20.802Z,0.61
2022-08-01T02:10:05.879Z,0.61
2022-08-01T02:11:14.047Z,0.77
2022-08-01T02:12:15.920Z,0.77
2022-08-01T02:13:15.772Z,0.87
2022-08-01T02:14:14.251Z,0.87
2022-08-01T02:15:14.130Z,0.93
2022-08-01T02:16:13.397Z,0.73
2022-08-01T02:17:17.084Z,0.79
2022-08-01T02:18:13.956Z,0.93
2022-08-01T02:19:12.177Z,0.93
2022-08-01T02:20:16.390Z,0.85
2022-08-01T02:21:14.130Z,1.01
2022-08-01T02:22:19.215Z,0.81
2022-08-01T02:23:07.122Z,0.81
2022-08-01T02:24:12.031Z,0.84
2022-08-01T02:25:16.458Z,0.84
2022-08-01T02:26:13.929Z,0.84
2022-08-01T02:27:14.949Z,0.88
2022-08-01T02:28:15.230Z,0.86
2022-08-01T02:29:11.959Z,0.86
2022-08-01T02:30:13.060Z,1.25
2022-08-01T02:31:14.530Z,1.25
2022-08-01T02:32:17.654Z,1.08
2022-08-01T02:33:17.483Z,1.05
2022-08-01T02:34:06.880Z,1.05
2022-08-01T02:35:13.895Z,0.92
2022-08-01T02:36:33.662Z,0.92
2022-08-01T02:37:09.494Z,0.92
2022-08-01T02:38:13.179Z,1.01
2022-08-01T02:39:15.384Z,0.91
2022-08-01T02:40:16.471Z,0.78
2022-08-01T02:41:14.978Z,0.78
2022-08-01T02:42:12.979Z,1.04
2022-08-01T02:43:18.562Z,0.49
2022-08-01T02:44:06.803Z,0.49
2022-08-01T02:45:14.421Z,1.09
2022-08-01T02:46:14.432Z,1.74
2022-08-01T02:47:13.858Z,1.12
2022-08-01T02:48:16.739Z,1.12
2022-08-01T02:49:08.119Z,1.08
2022-08-01T02:50:04.785Z,1.08
2022-08-01T02:51:17.286Z,1.05
2022-08-01T02:52:12.640Z,0.89
2022-08-01T02:53:13.574Z,0.89
2022-08-01T02:54:14.422Z,1.14
2022-08-01T02:55:16.207Z,1.32
2022-08-01T02:56:13.261Z,0.72
2022-08-01T02:57:16.064Z,0.72
2022-08-01T02:58:14.903Z,1.51
2022-08-01T02:59:10.303Z,1.34
2022-08-01T03:00:15.631Z,1.67
2022-08-01T03:01:13.442Z,0.66
2022-08-01T03:02:22.622Z,0.85
2022-08-01T03:03:04.770Z,0.85
2022-08-01T03:04:13.857Z,0.9
2022-08-01T03:05:19.126Z,0.9
2022-08-01T03:06:13.068Z,1.09
2022-08-01T03:07:15.333Z,1.09
2022-08-01T03:08:05.928Z,0.78
2022-08-01T03:09:16.623Z,0.78
2022-08-01T03:10:06.090Z,0.92
2022-08-01T03:11:16.932Z,1.07
2022-08-01T03:12:14.838Z,0.7
2022-08-01T03:13:17.652Z,0.7
2022-08-01T03:14:11.866Z,0.94
2022-08-01T03:15:11.960Z,1.34
2022-08-01T03:16:14.483Z,1.34
2022-08-01T03:17:15.602Z,2.02
2022-08-01T03:18:13.650Z,2.02
2022-08-01T03:19:11.233Z,0.67
2022-08-01T03:20:12.115Z,0.67
2022-08-01T03:21:12.106Z,1.17
2022-08-01T03:22:14.814Z,1.17
2022-08-01T03:23:15.632Z,0.81
2022-08-01T03:24:12.201Z,0.81
2022-08-01T03:25:15.488Z,0.81
2022-08-01T03:26:14.345Z,0.82
2022-08-01T03:27:15.586Z,0.82
2022-08-01T03:28:16.121Z,1.42
2022-08-01T03:29:11.441Z,1.42
2022-08-01T03:30:11.528Z,0.75
2022-08-01T03:31:12.120Z,1.02
2022-08-01T03:32:16.209Z,1.02
2022-08-01T03:33:16.573Z,1.3
2022-08-01T03:34:13.562Z,0.83
2022-08-01T03:35:09.105Z,0.83
2022-08-01T03:36:16.317Z,1.31
2022-08-01T03:37:14.331Z,1.14
2022-08-01T03:38:20.831Z,1.14
2022-08-01T03:39:20.804Z,1.01
2022-08-01T03:40:04.800Z,1.01
2022-08-01T03:41:16.395Z,1.04
2022-08-01T03:42:11.888Z,2.08
2022-08-01T03:43:13.009Z,2.08
2022-08-01T03:44:12.231Z,2.08
2022-08-01T03:45:15.541Z,1.14
2022-08-01T03:46:13.649Z,1.14
2022-08-01T03:47:15.398Z,0.95
2022-08-01T03:48:13.607Z,2.04
2022-08-01T03:49:12.476Z,1.07
2022-08-01T03:50:14.684Z,1.02
2022-08-01T03:51:12.974Z,1.02
2022-08-01T03:52:15.841Z,1.28
2022-08-01T03:53:13.970Z,1.15
2022-08-01T03:54:29.454Z,1.26
2022-08-01T03:55:04.737Z,1.26
2022-08-01T03:56:15.983Z,1.49
2022-08-01T03:57:38.364Z,1.49
2022-08-01T03:58:12.764Z,1.35
2022-08-01T03:59:12.916Z,1.31
2022-08-01T04:00:14.547Z,1.26
2022-08-01T04:01:17.754Z,1.26
2022-08-01T04:02:11.597Z,1.26
2022-08-01T04:03:17.552Z,1.01
2022-08-01T04:04:12.120Z,1.57
2022-08-01T04:05:15.031Z,1.57
2022-08-01T04:06:13.598Z,1.02
2022-08-01T04:07:13.419Z,1.14
2022-08-01T04:08:11.096Z,0.93
2022-08-01T04:09:20.417Z,1.01
2022-08-01T04:10:12.146Z,1.01
2022-08-01T04:11:12.628Z,1.05
2022-08-01T04:12:14.367Z,1.05
2022-08-01T04:13:13.984Z,0.92
2022-08-01T04:14:13.254Z,0.96
2022-08-01T04:15:10.870Z,0.97
2022-08-01T04:16:12.738Z,0.97
2022-08-01T04:17:16.902Z,0.97
2022-08-01T04:18:13.591Z,1.5
2022-08-01T04:19:17.100Z,1.5
2022-08-01T04:20:15.642Z,0.85
2022-08-01T04:21:14.949Z,0.85
2022-08-01T04:22:12.845Z,0.94
2022-08-01T04:23:15.712Z,1.12
2022-08-01T04:24:15.103Z,1.09
2022-08-01T04:25:19.843Z,1.09
2022-08-01T04:26:05.256Z,1.09
2022-08-01T04:27:13.828Z,1.02
2022-08-01T04:28:11.205Z,0.76
2022-08-01T04:29:15.361Z,0.76
2022-08-01T04:30:20.335Z,1.09
2022-08-01T04:31:18.172Z,0.9
2022-08-01T04:32:06.523Z,0.9
2022-08-01T04:33:21.068Z,1.1
2022-08-01T04:34:13.821Z,1.1
2022-08-01T04:36:04.696Z,1.1
2022-08-01T04:36:14.909Z,0.96
2022-08-01T04:37:14.333Z,0.96
2022-08-01T04:38:16.514Z,0.99
2022-08-01T04:39:16.438Z,1.51
2022-08-01T04:40:12.942Z,1.28
2022-08-01T04:41:14.586Z,1.28
2022-08-01T04:42:11.902Z,0.83
2022-08-01T04:43:17.297Z,1.24
2022-08-01T04:44:13.003Z,1.24
2022-08-01T04:45:14.783Z,1.24
2022-08-01T04:46:11.440Z,1.64
2022-08-01T04:47:12.809Z,1.64
2022-08-01T04:48:11.017Z,1.62
2022-08-01T04:49:15.560Z,1.39
2022-08-01T04:50:12.761Z,1.29
2022-08-01T04:51:14.935Z,1.29
2022-08-01T04:52:21.826Z,1.04
2022-08-01T04:53:13.982Z,0.82
2022-08-01T04:54:13.822Z,0.82
2022-08-01T04:55:14.557Z,0.95
2022-08-01T04:56:12.659Z,0.95
2022-08-01T04:57:07.733Z,1.66
2022-08-01T04:58:19.939Z,1.05
2022-08-01T04:59:21.623Z,0.97
2022-08-01T05:00:15.367Z,0.97
2022-08-01T05:01:14.000Z,0.97
2022-08-01T05:02:13.906Z,0.96
2022-08-01T05:03:13.960Z,0.96
2022-08-01T05:04:16.049Z,1.19
2022-08-01T05:05:09.162Z,1.34
2022-08-01T05:06:13.730Z,0.99
2022-08-01T05:07:14.635Z,0.99
2022-08-01T05:08:12.941Z,0.99
2022-08-01T05:09:32.834Z,0.91
2022-08-01T05:10:07.759Z,1.07
2022-08-01T05:11:13.285Z,0.91
2022-08-01T05:12:14.405Z,1.05
2022-08-01T05:13:14.115Z,1.05
2022-08-01T05:14:14.499Z,1.41
2022-08-01T05:15:17.013Z,1.41
2022-08-01T05:16:17.353Z,0.81
2022-08-01T05:17:11.068Z,1.62
2022-08-01T05:18:16.532Z,0.83
2022-08-01T05:19:13.018Z,0.83
2022-08-01T05:20:14.836Z,1.44
2022-08-01T05:21:12.428Z,1.44
2022-08-01T05:22:12.329Z,0.64
2022-08-01T05:23:44.123Z,0.64
2022-08-01T05:24:14.281Z,1.11
2022-08-01T05:25:15.224Z,1.14
2022-08-01T05:26:16.899Z,1.05
2022-08-01T05:27:17.625Z,1.05
2022-08-01T05:28:20.942Z,1.04
2022-08-01T05:29:11.211Z,1.01
2022-08-01T05:30:13.350Z,1.01
2022-08-01T05:31:10.216Z,1.23
2022-08-01T05:32:12.445Z,1.23
2022-08-01T05:33:13.684Z,1.01
2022-08-01T05:34:17.135Z,0.66
2022-08-01T05:35:13.127Z,0.66
2022-08-01T05:36:12.260Z,0.73
2022-08-01T05:37:09.606Z,0.83
2022-08-01T05:38:16.909Z,0.86
2022-08-01T05:39:21.357Z,0.86
2022-08-01T05:40:04.510Z,0.86
2022-08-01T05:41:14.487Z,0.94
2022-08-01T05:42:11.109Z,0.78
2022-08-01T05:43:14.204Z,0.69
2022-08-01T05:44:15.082Z,0.85
2022-08-01T05:45:14.764Z,0.78
2022-08-01T05:46:15.214Z,0.78
2022-08-01T05:47:13.071Z,1.19
2022-08-01T05:48:16.408Z,1.19
2022-08-01T05:49:14.839Z,1.31
2022-08-01T05:50:18.649Z,1.12
2022-08-01T05:51:10.046Z,1.12
2022-08-01T05:52:14.377Z,1.25
2022-08-01T05:53:13.857Z,1.25
2022-08-01T05:54:13.511Z,0.87
2022-08-01T05:55:19.886Z,0.87
2022-08-01T05:56:14.780Z,1.09
2022-08-01T05:57:17.373Z,1.09
2022-08-01T05:58:14.682Z,0.68
2022-08-01T05:59:15.050Z,0.68
2022-08-01T06:00:10.799Z,1.03
2022-08-01T06:01:11.572Z,1.03
2022-08-01T06:02:14.801Z,1.04
2022-08-01T06:03:14.156Z,0.9
2022-08-01T06:04:15.983Z,1.36
2022-08-01T06:05:15.591Z,0.66
2022-08-01T06:06:15.612Z,0.66
2022-08-01T06:07:11.792Z,1.21
2022-08-01T06:08:12.964Z,1.05
2022-08-01T06:09:17.987Z,1.05
2022-08-01T06:10:10.795Z,0.88
2022-08-01T06:11:09.822Z,0.88
2022-08-01T06:12:13.753Z,0.67
2022-08-01T06:13:13.237Z,0.67
2022-08-01T06:14:11.148Z,1.1
2022-08-01T06:15:15.442Z,0.81
2022-08-01T06:16:15.014Z,0.81
2022-08-01T06:17:12.332Z,0.65
2022-08-01T06:18:13.734Z,0.73
2022-08-01T06:19:13.704Z,0.73
2022-08-01T06:20:12.763Z,0.66
2022-08-01T06:21:04.779Z,0.66
2022-08-01T06:22:15.155Z,0.47
2022-08-01T06:23:34.795Z,0.86
2022-08-01T06:24:05.784Z,0.86
2022-08-01T06:25:16.672Z,0.56
2022-08-01T06:26:18.921Z,0.56
2022-08-01T06:27:24.134Z,0.68
2022-08-01T06:28:13.397Z,0.68
2022-08-01T06:29:16.579Z,0.61
2022-08-01T06:30:12.635Z,1.18
2022-08-01T06:31:14.019Z,1.18
2022-08-01T06:32:08.905Z,0.79
2022-08-01T06:33:05.283Z,0.79
2022-08-01T06:34:15.318Z,1.08
2022-08-01T06:35:15.246Z,0.63
2022-08-01T06:36:18.882Z,0.63
2022-08-01T06:37:13.745Z,0.68
2022-08-01T06:38:12.853Z,0.92
2022-08-01T06:39:26.955Z,0.71
2022-08-01T06:40:04.733Z,0.65
2022-08-01T06:41:14.438Z,0.65
2022-08-01T06:42:12.357Z,0.74
2022-08-01T06:43:12.920Z,0.74
2022-08-01T06:44:15.343Z,0.84
2022-08-01T06:45:10.832Z,0.92
2022-08-01T06:46:17.314Z,0.85
2022-08-01T06:47:05.343Z,0.85
2022-08-01T06:48:15.274Z,0.58
2022-08-01T06:49:12.424Z,0.51
2022-08-01T06:50:16.149Z,0.51
2022-08-01T06:51:16.529Z,0.75
2022-08-01T06:52:12.911Z,0.75
2022-08-01T06:53:16.778Z,0.75
2022-08-01T06:54:23.335Z,0.59
2022-08-01T06:55:04.973Z,0.59
2022-08-01T06:56:18.844Z,0.29
2022-08-01T06:57:12.528Z,0.44
2022-08-01T06:58:17.963Z,0.4
2022-08-01T06:59:06.325Z,0.4
2022-08-01T07:00:19.334Z,0.69
2022-08-01T07:01:16.176Z,2.39
2022-08-01T07:02:13.147Z,2.39
2022-08-01T07:03:11.949Z,1.11
2022-08-01T07:04:14.512Z,0.4
2022-08-01T07:05:15.030Z,0.49
2022-08-01T07:06:14.960Z,0.49
2022-08-01T07:07:15.348Z,0.41
2022-08-01T07:08:12.526Z,0.59
2022-08-01T07:09:19.227Z,0.59
2022-08-01T07:10:06.258Z,0.59
2022-08-01T07:11:19.570Z,0.52
2022-08-01T07:12:14.028Z,0.78
2022-08-01T07:13:12.132Z,0.78
2022-08-01T07:14:14.558Z,0.54
2022-08-01T07:15:10.670Z,0.54
2022-08-01T07:16:13.953Z,0.44
2022-08-01T07:17:13.203Z,0.44
2022-08-01T07:18:14.061Z,0.41
2022-08-01T07:19:16.618Z,0.49
2022-08-01T07:20:13.748Z,0.64
2022-08-01T07:21:42.165Z,0.35
2022-08-01T07:22:13.075Z,0.35
2022-08-01T07:23:14.875Z,0.51
2022-08-01T07:24:15.684Z,0.72
2022-08-01T07:25:12.203Z,0.72
2022-08-01T07:26:14.193Z,0.49
2022-08-01T07:27:26.489Z,0.49
2022-08-01T07:28:15.525Z,1.46
2022-08-01T07:29:12.261Z,1.46
2022-08-01T07:30:15.230Z,0.54
2022-08-01T07:31:15.838Z,0.54
2022-08-01T07:32:11.099Z,0.52
2022-08-01T07:33:13.600Z,0.52
2022-08-01T07:34:11.036Z,0.61
2022-08-01T07:35:15.949Z,0.52
2022-08-01T07:36:13.343Z,0.59
2022-08-01T07:37:10.401Z,0.59
2022-08-01T07:38:17.749Z,0.59
2022-08-01T07:39:15.560Z,0.42
2022-08-01T07:40:14.625Z,0.42
2022-08-01T07:41:13.453Z,0.35
2022-08-01T07:42:16.339Z,0.82
2022-08-01T07:43:12.712Z,0.58
2022-08-01T07:44:12.249Z,0.58
2022-08-01T07:45:17.579Z,0.44
2022-08-01T07:46:15.485Z,0.44
2022-08-01T07:47:12.456Z,0.55
2022-08-01T07:48:14.281Z,0.61
2022-08-01T07:49:13.446Z,0.61
2022-08-01T07:50:14.978Z,0.61
2022-08-01T07:51:12.441Z,1.02
2022-08-01T07:52:14.656Z,0.54
2022-08-01T07:53:12.703Z,0.76
2022-08-01T07:54:12.177Z,0.41
2022-08-01T07:55:16.344Z,0.58
2022-08-01T07:56:16.842Z,0.71
2022-08-01T07:57:13.268Z,0.66
2022-08-01T07:58:14.605Z,0.83
2022-08-01T07:59:12.333Z,0.9
2022-08-01T08:00:12.096Z,0.9
2022-08-01T08:01:14.182Z,0.71
2022-08-01T08:02:12.369Z,0.71
2022-08-01T08:03:11.406Z,0.88
2022-08-01T08:04:12.754Z,0.51
2022-08-01T08:05:13.953Z,0.53
2022-08-01T08:06:09.678Z,0.53
2022-08-01T08:07:16.948Z,1.11
2022-08-01T08:08:12.951Z,0.68
2022-08-01T08:09:16.138Z,0.68
2022-08-01T08:10:10.467Z,0.73
2022-08-01T08:11:14.992Z,0.73
2022-08-01T08:12:11.281Z,0.78
2022-08-01T08:13:12.866Z,0.78
2022-08-01T08:14:16.414Z,0.45
2022-08-01T08:15:15.237Z,0.74
2022-08-01T08:16:14.161Z,0.64
2022-08-01T08:17:17.566Z,0.64
2022-08-01T08:18:14.646Z,0.52
2022-08-01T08:19:15.058Z,0.52
2022-08-01T08:20:11.829Z,0.47
2022-08-01T08:21:13.760Z,0.47
2022-08-01T08:22:11.994Z,1.07
2022-08-01T08:23:11.481Z,1.07
2022-08-01T08:24:14.696Z,0.61
2022-08-01T08:25:10.248Z,0.61
2022-08-01T08:26:12.631Z,0.69
2022-08-01T08:27:13.779Z,0.76
2022-08-01T08:28:10.614Z,0.69
2022-08-01T08:29:15.045Z,0.75
2022-08-01T08:30:14.985Z,0.75
2022-08-01T08:31:53.912Z,0.66
2022-08-01T08:32:11.975Z,0.66
2022-08-01T08:33:16.461Z,0.84
2022-08-01T08:34:12.474Z,0.84
2022-08-01T08:35:23.378Z,0.36
2022-08-01T08:36:10.856Z,0.64
2022-08-01T08:37:15.255Z,0.64
2022-08-01T08:38:13.394Z,0.86
2022-08-01T08:39:16.630Z,1.02
2022-08-01T08:40:13.111Z,1.02
2022-08-01T08:41:14.402Z,1.02
2022-08-01T08:42:17.301Z,0.79
2022-08-01T08:43:10.112Z,0.62
2022-08-01T08:44:18.198Z,0.61
2022-08-01T08:45:14.126Z,0.9
2022-08-01T08:46:16.317Z,0.76
2022-08-01T08:47:12.930Z,0.58
2022-08-01T08:48:13.458Z,0.58
2022-08-01T08:49:11.595Z,0.58
2022-08-01T08:50:27.098Z,0.58
2022-08-01T08:51:05.402Z,0.58
2022-08-01T08:52:19.078Z,0.58
2022-08-01T08:53:14.741Z,0.67
2022-08-01T08:54:15.290Z,1.14
2022-08-01T08:55:12.767Z,1.11
2022-08-01T08:56:14.448Z,0.56
2022-08-01T08:57:17.050Z,0.56
2022-08-01T08:58:13.772Z,0.58
2022-08-01T08:59:13.184Z,0.9
2022-08-01T09:00:14.794Z,0.75
2022-08-01T09:01:14.317Z,0.75
2022-08-01T09:02:12.917Z,0.65
2022-08-01T09:03:15.957Z,1.01
2022-08-01T09:04:14.954Z,0.62
2022-08-01T09:05:25.248Z,1.01
2022-08-01T09:06:04.983Z,0.73
2022-08-01T09:07:10.710Z,0.7
2022-08-01T09:08:14.170Z,0.66
2022-08-01T09:09:19.983Z,0.81
2022-08-01T09:10:16.112Z,0.81
2022-08-01T09:11:08.700Z,0.42
2022-08-01T09:12:15.422Z,0.42
2022-08-01T09:13:14.143Z,0.75
2022-08-01T09:14:16.801Z,0.74
2022-08-01T09:15:12.664Z,0.69
2022-08-01T09:16:18.534Z,0.67
2022-08-01T09:17:14.949Z,0.54
2022-08-01T09:18:15.001Z,0.54
2022-08-01T09:19:41.856Z,1.39
2022-08-01T09:20:07.221Z,1.39
2022-08-01T09:21:19.448Z,1.01
2022-08-01T09:22:17.324Z,1.01
2022-08-01T09:23:13.622Z,0.82
2022-08-01T09:24:12.658Z,0.44
2022-08-01T09:25:13.803Z,0.44
2022-08-01T09:26:17.835Z,0.58
2022-08-01T09:27:07.165Z,0.58
2022-08-01T09:28:13.812Z,1.14
2022-08-01T09:29:12.553Z,1.14
2022-08-01T09:30:13.767Z,0.88
2022-08-01T09:31:12.108Z,0.88
2022-08-01T09:32:18.643Z,0.88
2022-08-01T09:33:23.665Z,1.36
2022-08-01T09:34:15.154Z,0.68
2022-08-01T09:35:14.085Z,0.68
2022-08-01T09:36:15.379Z,0.5
2022-08-01T09:37:16.366Z,1.56
2022-08-01T09:38:11.999Z,1.56
2022-08-01T09:39:17.934Z,0.81
2022-08-01T09:40:09.230Z,0.81
2022-08-01T09:41:16.397Z,0.49
2022-08-01T09:42:10.961Z,0.76
2022-08-01T09:43:18.413Z,0.76
2022-08-01T09:44:05.065Z,0.41
2022-08-01T09:45:25.367Z,0.59
2022-08-01T09:46:14.745Z,0.59
2022-08-01T09:47:17.389Z,0.42
2022-08-01T09:48:14.037Z,0.42
2022-08-01T09:49:15.261Z,0.42
2022-08-01T09:50:21.054Z,0.55
2022-08-01T09:51:11.583Z,0.55
2022-08-01T09:52:16.748Z,0.76
2022-08-01T09:53:31.908Z,0.42
2022-08-01T09:54:14.454Z,0.42
2022-08-01T09:55:11.909Z,0.76
2022-08-01T09:56:12.305Z,0.91
2022-08-01T09:57:11.384Z,0.94
2022-08-01T09:58:15.106Z,0.94
2022-08-01T09:59:05.111Z,0.82
2022-08-01T10:00:19.349Z,1.05
2022-08-01T10:01:16.278Z,1.05
2022-08-01T10:02:12.741Z,0.38
2022-08-01T10:03:20.189Z,0.38
2022-08-01T10:04:15.035Z,0.62
2022-08-01T10:05:21.431Z,0.62
2022-08-01T10:06:12.191Z,0.48
2022-08-01T10:07:15.928Z,0.73
2022-08-01T10:08:13.762Z,0.54
2022-08-01T10:09:18.963Z,0.58
2022-08-01T10:10:05.074Z,0.43
2022-08-01T10:11:18.631Z,0.79
2022-08-01T10:12:21.628Z,0.51
2022-08-01T10:13:06.167Z,0.51
2022-08-01T10:14:14.179Z,0.46
2022-08-01T10:15:13.433Z,0.44
2022-08-01T10:16:13.472Z,0.72
2022-08-01T10:17:20.600Z,0.92
2022-08-01T10:18:28.544Z,0.69
2022-08-01T10:19:17.669Z,0.39
2022-08-01T10:20:32.313Z,0.89
2022-08-01T10:21:16.079Z,0.49
2022-08-01T10:22:18.187Z,1.01
2022-08-01T10:23:12.888Z,1.01
2022-08-01T10:24:12.406Z,0.75
2022-08-01T10:25:15.785Z,0.52
2022-08-01T10:26:12.831Z,0.64
2022-08-01T10:27:14.915Z,0.53
2022-08-01T10:28:12.459Z,0.56
2022-08-01T10:30:06.908Z,0.56
2022-08-01T10:30:23.171Z,0.61
2022-08-01T10:31:16.786Z,0.61
2022-08-01T10:32:14.633Z,0.45
2022-08-01T10:33:07.794Z,0.45
2022-08-01T10:34:15.422Z,0.5
2022-08-01T10:35:17.442Z,0.49
2022-08-01T10:36:14.500Z,0.68
2022-08-01T10:37:12.719Z,0.88
2022-08-01T10:38:15.606Z,0.88
2022-08-01T10:39:15.291Z,0.45
2022-08-01T10:40:31.813Z,0.45
2022-08-01T10:41:12.917Z,0.45
2022-08-01T10:42:17.777Z,0.36
2022-08-01T10:43:10.110Z,0.43
2022-08-01T10:44:13.677Z,0.43
2022-08-01T10:45:13.252Z,0.52
2022-08-01T10:46:14.571Z,0.51
2022-08-01T10:47:16.124Z,0.51
2022-08-01T10:48:09.771Z,0.51
2022-08-01T10:49:12.758Z,0.6
2022-08-01T10:50:26.060Z,0.43
2022-08-01T10:51:20.891Z,0.43
2022-08-01T10:52:14.896Z,0.75
2022-08-01T10:53:23.451Z,0.75
2022-08-01T10:54:13.470Z,0.68
2022-08-01T10:55:15.153Z,0.55
2022-08-01T10:56:16.742Z,0.47
2022-08-01T10:57:11.966Z,0.6
2022-08-01T10:58:17.826Z,0.6
2022-08-01T10:59:17.696Z,0.59
2022-08-01T11:00:12.700Z,0.57
2022-08-01T11:01:15.845Z,0.57
2022-08-01T11:02:11.833Z,0.76
2022-08-01T11:03:12.720Z,0.54
2022-08-01T11:04:18.715Z,0.31
2022-08-01T11:05:14.161Z,0.51
2022-08-01T11:06:13.498Z,0.42
2022-08-01T11:07:12.357Z,0.51
2022-08-01T11:08:12.929Z,0.51
2022-08-01T11:09:19.573Z,1.18
2022-08-01T11:10:05.668Z,0.34
2022-08-01T11:11:16.535Z,0.34
2022-08-01T11:12:25.406Z,0.38
2022-08-01T11:13:15.542Z,0.38
2022-08-01T11:14:14.457Z,0.96
2022-08-01T11:15:10.382Z,0.89
2022-08-01T11:16:20.369Z,0.76
2022-08-01T11:17:13.017Z,0.4
2022-08-01T11:18:17.347Z,0.75
2022-08-01T11:19:12.069Z,0.75
2022-08-01T11:20:11.351Z,0.56
2022-08-01T11:22:01.401Z,0.56
2022-08-01T11:22:12.311Z,0.65
2022-08-01T11:23:14.526Z,0.65
2022-08-01T11:24:15.544Z,0.38
2022-08-01T11:25:15.708Z,0.42
2022-08-01T11:26:17.519Z,0.4
2022-08-01T11:27:17.317Z,0.4
2022-08-01T11:28:25.020Z,0.48
2022-08-01T11:29:22.713Z,0.42
2022-08-01T11:30:15.408Z,0.52
2022-08-01T11:31:16.169Z,0.24
2022-08-01T11:32:14.767Z,0.24
2022-08-01T11:33:14.357Z,0.35
2022-08-01T11:34:17.725Z,0.92
2022-08-01T11:35:19.111Z,0.28
2022-08-01T11:36:11.896Z,0.47
2022-08-01T11:37:16.979Z,0.49
2022-08-01T11:38:11.144Z,0.49
2022-08-01T11:39:19.743Z,0.68
2022-08-01T11:40:13.628Z,0.91
2022-08-01T11:41:19.363Z,0.91
2022-08-01T11:42:11.895Z,0.39
2022-08-01T11:43:15.319Z,0.93
2022-08-01T11:44:11.601Z,0.36
2022-08-01T11:45:18.144Z,0.36
2022-08-01T11:46:16.562Z,0.5
2022-08-01T11:47:15.351Z,0.5
2022-08-01T11:48:10.142Z,0.51
2022-08-01T11:49:15.602Z,1.71
2022-08-01T11:50:13.590Z,0.34
2022-08-01T11:51:25.612Z,0.34
2022-08-01T11:52:10.769Z,0.91
2022-08-01T11:53:13.547Z,0.91
2022-08-01T11:54:13.539Z,0.73
2022-08-01T11:55:16.593Z,0.49
2022-08-01T11:56:14.145Z,0.35
2022-08-01T11:57:13.119Z,0.35
2022-08-01T11:58:27.660Z,0.38
2022-08-01T11:59:17.934Z,0.68
2022-08-01T12:00:26.447Z,0.68
2022-08-01T12:01:05.132Z,0.68
2022-08-01T12:02:16.152Z,0.42
2022-08-01T12:03:22.180Z,0.42
2022-08-01T12:04:19.008Z,0.74
2022-08-01T12:05:16.376Z,0.58
2022-08-01T12:06:14.467Z,0.46
2022-08-01T12:07:15.230Z,0.46
2022-08-01T12:08:14.367Z,0.46
2022-08-01T12:09:12.143Z,0.46
2022-08-01T12:10:14.399Z,0.49
2022-08-01T12:11:13.218Z,0.59
2022-08-01T12:12:18.421Z,0.59
2022-08-01T12:13:13.801Z,0.46
2022-08-01T12:14:14.746Z,0.46
2022-08-01T12:15:13.636Z,0.39
2022-08-01T12:16:18.197Z,0.39
2022-08-01T12:17:05.657Z,0.48
2022-08-01T12:18:07.935Z,0.43
2022-08-01T12:19:13.930Z,0.65
2022-08-01T12:20:14.699Z,0.65
2022-08-01T12:21:14.630Z,0.33
2022-08-01T12:22:15.926Z,0.81
2022-08-01T12:23:11.215Z,0.6
2022-08-01T12:24:12.579Z,0.6
2022-08-01T12:25:12.862Z,0.56
2022-08-01T12:26:34.209Z,0.81
2022-08-01T12:27:14.097Z,0.81
2022-08-01T12:28:12.219Z,0.79
2022-08-01T12:29:12.644Z,0.55
2022-08-01T12:30:15.425Z,0.42
2022-08-01T12:31:15.002Z,0.29
2022-08-01T12:32:15.478Z,0.29
2022-08-01T12:33:14.727Z,0.42
2022-08-01T12:34:05.657Z,0.42
2022-08-01T12:35:05.307Z,0.41
2022-08-01T12:36:16.927Z,0.38
2022-08-01T12:37:17.595Z,0.44
2022-08-01T12:38:13.904Z,0.44
2022-08-01T12:39:18.228Z,0.51
2022-08-01T12:40:12.979Z,0.51
2022-08-01T12:41:18.582Z,0.51
2022-08-01T12:42:11.128Z,0.54
2022-08-01T12:43:29.648Z,0.54
2022-08-01T12:44:13.802Z,0.27
2022-08-01T12:45:12.901Z,0.27
2022-08-01T12:46:12.762Z,0.5
2022-08-01T12:47:22.153Z,0.96
2022-08-01T12:48:06.160Z,0.96
2022-08-01T12:49:13.882Z,0.48
2022-08-01T12:50:13.954Z,0.32
2022-08-01T12:51:12.214Z,0.39
2022-08-01T12:52:21.082Z,0.39
2022-08-01T12:53:18.827Z,0.38
2022-08-01T12:54:20.622Z,0.38
2022-08-01T12:55:11.982Z,0.34
2022-08-01T12:56:17.610Z,0.34
2022-08-01T12:57:15.118Z,0.31
2022-08-01T12:58:18.183Z,0.45
2022-08-01T12:59:17.477Z,0.45
2022-08-01T13:00:16.610Z,0.45
2022-08-01T13:01:16.747Z,0.23
2022-08-01T13:02:14.863Z,0.23
2022-08-01T13:03:12.541Z,0.47
2022-08-01T13:04:15.913Z,0.47
2022-08-01T13:05:14.309Z,0.21
2022-08-01T13:06:13.113Z,0.21
2022-08-01T13:07:14.220Z,0.21
2022-08-01T13:08:15.493Z,0.36
2022-08-01T13:09:17.215Z,0.36
2022-08-01T13:10:10.628Z,0.42
2022-08-01T13:11:14.310Z,0.36
2022-08-01T13:12:24.689Z,0.36
2022-08-01T13:13:05.411Z,0.29
2022-08-01T13:14:14.217Z,0.29
2022-08-01T13:15:13.924Z,0.38
2022-08-01T13:16:26.052Z,0.29
2022-08-01T13:17:17.756Z,0.29
2022-08-01T13:18:10.967Z,0.38
2022-08-01T13:19:11.671Z,0.36
2022-08-01T13:20:09.396Z,0.36